WetterOnline ( https://www.wetteronline.de )

Wetter aktuell Lohr

Aktuelles Wetter: Neuhütten/Spessart (340m)

6-stündlich | Neueste Meldungen
Ortszeit Temperatur Wetter
Di, 25.02. 19:00 5.8° C bewölkt
Di, 25.02. 13:00 7.2° C Sprühregen
Di, 25.02. 7:00 7.0° C leichter Regen
Di, 25.02. 1:00 8.9° C Sprühregen
Mo, 24.02. 19:00 10.4° C bewölkt
Mo, 24.02. 13:00 4.7° C Sprühregen
Mo, 24.02. 7:00 2.3° C bedeckt
Mo, 24.02. 1:00 5.7° C bedeckt
Ortszeit Temperatur Wetter
Di, 25.02. 20:00 5.6° C fast wolkenlos
Di, 25.02. 19:50 5.6° C fast wolkenlos
Di, 25.02. 19:40 5.7° C wolkenlos
Di, 25.02. 19:30 6.1° C fast wolkenlos
Di, 25.02. 19:20 6.1° C fast wolkenlos
Di, 25.02. 19:10 5.5° C leicht bewölkt
Di, 25.02. 19:00 5.8° C bewölkt
Di, 25.02. 18:30 5.6° C leicht bewölkt
Di, 25.02. 18:00 6.3° C wolkenlos
Di, 25.02. 17:30 7.0° C fast wolkenlos
Di, 25.02. 17:00 7.3° C leicht bewölkt
Ortszeit Relative Feuchte Sichtweite
Di, 25.02. 19:00 80% 50 km
Di, 25.02. 13:00 89% 12 km
Di, 25.02. 7:00 90% 14 km
Di, 25.02. 1:00 74% 7 km
Mo, 24.02. 19:00 80% 45 km
Mo, 24.02. 13:00 91% 3.0 km
Mo, 24.02. 7:00 85% 40 km
Mo, 24.02. 1:00 71% 65 km
Ortszeit Relative Feuchte Sichtweite
Di, 25.02. 20:00 78% 55 km
Di, 25.02. 19:50 78% -
Di, 25.02. 19:40 79% -
Di, 25.02. 19:30 78% 55 km
Di, 25.02. 19:20 78% -
Di, 25.02. 19:10 82% -
Di, 25.02. 19:00 80% 50 km
Di, 25.02. 18:30 83% 50 km
Di, 25.02. 18:00 75% 55 km
Di, 25.02. 17:30 71% 55 km
Di, 25.02. 17:00 75% 55 km
Ortszeit Niederschlagsmenge Niederschlagsart
Di, 25.02. 19:00 10 l/m2 in 12 Std. Regen
Di, 25.02. 13:00 7 l/m2 in 6 Std. Regen
Di, 25.02. 7:00 5 l/m2 in 12 Std. Regen
Di, 25.02. 1:00 0.1 l/m2 in 6 Std. Regen
Mo, 24.02. 19:00 2 l/m2 in 12 Std. Regen
Mo, 24.02. 13:00 0.4 l/m2 in 6 Std. Regen
Mo, 24.02. 7:00 8 l/m2 in 12 Std. -
Mo, 24.02. 1:00 8 l/m2 in 6 Std. Regen
Ortszeit Niederschlagsmenge Niederschlagsart
Di, 25.02. 20:00 0.0 l/m2 in 1 Std. -
Di, 25.02. 19:50 keine Meldung -
Di, 25.02. 19:40 keine Meldung -
Di, 25.02. 19:30 0.0 l/m2 in 1 Std. -
Di, 25.02. 19:20 keine Meldung -
Di, 25.02. 19:10 keine Meldung -
Di, 25.02. 19:00 0.0 l/m2 in 1 Std. Regen
Di, 25.02. 18:30 0.0 l/m2 in 1 Std. -
Di, 25.02. 18:00 0.0 l/m2 in 1 Std. -
Di, 25.02. 17:30 0.0 l/m2 in 1 Std. -
Di, 25.02. 17:00 0.0 l/m2 in 1 Std. -
Ortszeit Stärke Spitze Richtung
km/h Bft. km/h Grad Sektor
Di, 25.02. 19:00 18 3 50 230° SW
Di, 25.02. 13:00 28 4 57 260° W
Di, 25.02. 7:00 22 4 59 250° W
Di, 25.02. 1:00 24 4 69 270° W
Mo, 24.02. 19:00 22 4 43 260° W
Mo, 24.02. 13:00 7 2 26 170° S
Mo, 24.02. 7:00 4 1 22 200° S
Mo, 24.02. 1:00 7 2 68 340° N
Ortszeit Stärke Spitze Richtung
km/h Bft. km/h Grad Sektor
Di, 25.02. 20:00 14 3 29 250° W
Di, 25.02. 19:50 14 3 - 250° W
Di, 25.02. 19:40 14 3 - 250° W
Di, 25.02. 19:30 18 3 29 250° W
Di, 25.02. 19:20 18 3 - 250° W
Di, 25.02. 19:10 19 3 - 240° SW
Di, 25.02. 19:00 18 3 29 230° SW
Di, 25.02. 18:30 14 3 25 240° SW
Di, 25.02. 18:00 17 3 31 240° SW
Di, 25.02. 17:30 13 3 31 250° W
Di, 25.02. 17:00 17 3 35 260° W
Ortszeit Untergrenze Bedeckung Gattung
total tief tief mittel hoch
Di, 25.02. 19:00 780 m 7/8 7/8 - - -
Di, 25.02. 13:00 240 m 7/8 7/8 - - -
Di, 25.02. 7:00 270 m 7/8 7/8 - - -
Di, 25.02. 1:00 630 m 8/8 8/8 - - -
Mo, 24.02. 19:00 570 m 7/8 7/8 - - -
Mo, 24.02. 13:00 180 m 7/8 7/8 - - -
Mo, 24.02. 7:00 2400 m 8/8 8/8 - - -
Mo, 24.02. 1:00 810 m 8/8 8/8 - - -
Ortszeit Bedeckungsgrad in Achtel und Wolkenuntergrenze
Di, 25.02. 20:00 1(1440m)
Di, 25.02. 19:50 1(1440m)
Di, 25.02. 19:40 keine Wolken
Di, 25.02. 19:30 1(960m)
Di, 25.02. 19:20 1(960m) 1(1500m)
Di, 25.02. 19:10 1(840m) 2(990m) 3(1500m)
Di, 25.02. 19:00 2(780m) 6(1230m) 7(1500m)
Di, 25.02. 18:30 1(690m) 3(1110m)
Di, 25.02. 18:00 keine Wolken
Di, 25.02. 17:30 1(1200m)
Di, 25.02. 17:00 1(1200m) 3(1440m)
Ortszeit Luftdruck NN (hPa) Tendenz (hPa in 3 Std.)
Di, 25.02. 19:00 1000 - 0,9
Di, 25.02. 13:00 1002 - 1,3
Di, 25.02. 7:00 1004 - 1,4
Di, 25.02. 1:00 1008 - 1,5
Mo, 24.02. 19:00 1010 - 4,1
Mo, 24.02. 13:00 1020 - 3,6
Mo, 24.02. 7:00 1025 - 0,1
Mo, 24.02. 1:00 1023 + 3,7
Ortszeit Luftdruck NN (hPa) Tendenz (hPa in 3 Std.)
Di, 25.02. 20:00 1000 - 1,0
Di, 25.02. 19:50 1000 keine Meldung
Di, 25.02. 19:40 1000 keine Meldung
Di, 25.02. 19:30 1000 - 0,7
Di, 25.02. 19:20 1000 keine Meldung
Di, 25.02. 19:10 1000 keine Meldung
Di, 25.02. 19:00 1000 - 0,9
Di, 25.02. 18:30 1000 - 0,9
Di, 25.02. 18:00 1000 - 1,0
Di, 25.02. 17:30 1000 - 1,2
Di, 25.02. 17:00 1000 - 1,3
Ortszeit Schneehöhe (cm)
Di, 25.02. 19:00 0
Di, 25.02. 13:00 0
Di, 25.02. 7:00 0
Di, 25.02. 1:00 0
Mo, 24.02. 19:00 0
Mo, 24.02. 13:00 0
Mo, 24.02. 7:00 0
Mo, 24.02. 1:00 0
Ortszeit Schneehöhe (cm)
Di, 25.02. 20:00 0
Di, 25.02. 19:50 0
Di, 25.02. 19:40 0
Di, 25.02. 19:30 0
Di, 25.02. 19:20 0
Di, 25.02. 19:10 0
Di, 25.02. 19:00 0
Di, 25.02. 18:30 0
Di, 25.02. 18:00 0
Di, 25.02. 17:30 0
Di, 25.02. 17:00 0
Link zu dieser Seite / Seite empfehlen

Das Wetter in ...